Time;durP1;ratioP1;P1;durP2;ratioP2;P2;SDS_P1;SDS_P2;PMS_P1;PMS_P2;Temp;Humidity;BMP_temperature;BMP_pressure;BME280_temperature;BME280_humidity;BME280_pressure;Samples;Min_cycle;Max_cycle;Signal;HPM_P1;HPM_P2
2022/05/16 00:00:29;;;;;;;5.68;1.70;;;;;;;11.39;59.13;100968.13;5002283;28;20042;-75
2022/05/16 00:02:56;;;;;;;6.20;1.70;;;;;;;11.36;59.24;100969.91;5004372;28;20037;-74
2022/05/16 00:05:22;;;;;;;4.78;1.40;;;;;;;11.30;60.28;100962.00;5001592;28;20038;-74
2022/05/16 00:07:47;;;;;;;4.45;1.42;;;;;;;11.22;60.02;100972.59;5004553;28;20041;-74
2022/05/16 00:10:14;;;;;;;4.03;1.50;;;;;;;11.21;60.57;100964.66;5002620;28;20476;-74
2022/05/16 00:12:40;;;;;;;5.97;1.80;;;;;;;11.19;60.41;100970.84;5002990;28;20041;-74
2022/05/16 00:15:07;;;;;;;4.07;1.40;;;;;;;11.22;60.11;100969.09;5003818;28;20483;-74
2022/05/16 00:17:32;;;;;;;7.78;2.28;;;;;;;11.19;60.31;100972.59;5001450;28;20038;-74
2022/05/16 00:19:57;;;;;;;4.05;1.60;;;;;;;11.14;60.02;100969.09;5004650;28;20044;-74
2022/05/16 00:22:25;;;;;;;5.45;2.22;;;;;;;11.15;59.88;100973.47;5000793;28;20038;-75
2022/05/16 00:24:50;;;;;;;5.45;2.05;;;;;;;11.09;60.12;100968.22;5000828;28;20045;-74
2022/05/16 00:27:15;;;;;;;4.75;2.20;;;;;;;11.06;60.21;100978.78;5003274;28;20030;-75
2022/05/16 00:29:41;;;;;;;5.82;1.55;;;;;;;11.02;60.60;100974.38;5002007;28;20038;-74
2022/05/16 00:32:07;;;;;;;4.88;1.45;;;;;;;11.02;60.33;100977.03;5000479;28;20018;-74
2022/05/16 00:34:33;;;;;;;5.35;2.03;;;;;;;10.93;60.55;100975.28;5000950;28;20088;-74
2022/05/16 00:36:59;;;;;;;5.32;2.00;;;;;;;10.93;60.45;100978.78;5003853;28;20030;-74
2022/05/16 00:39:26;;;;;;;3.55;1.55;;;;;;;10.90;60.63;100977.94;5002607;28;20038;-74
2022/05/16 00:41:52;;;;;;;4.10;1.55;;;;;;;10.81;60.78;100984.06;5001993;28;20161;-74
2022/05/16 00:44:19;;;;;;;4.18;1.90;;;;;;;10.74;61.78;100980.56;5003659;28;20092;-74
2022/05/16 00:46:47;;;;;;;3.28;1.60;;;;;;;10.63;61.45;100991.97;5000993;28;20441;-74
2022/05/16 00:49:42;;;;;;;8.23;1.98;;;;;;;10.53;61.65;100983.16;4985984;28;20046;-74
2022/05/16 00:52:16;;;;;;;6.07;1.60;;;;;;;10.44;61.73;100984.03;4998285;28;20136;-74
2022/05/16 00:54:57;;;;;;;5.40;1.42;;;;;;;10.41;62.26;100994.59;5000248;28;20050;-75
2022/05/16 00:57:35;;;;;;;3.67;1.48;;;;;;;10.39;62.22;100991.06;5000977;28;20034;-74
2022/05/16 01:00:15;;;;;;;4.88;1.52;;;;;;;10.36;62.43;100988.41;4998079;28;20432;-74
2022/05/16 01:05:31;;;;;;;6.22;1.90;;;;;;;10.38;62.75;100985.81;5003062;28;20073;-75
2022/05/16 01:08:01;;;;;;;3.55;1.63;;;;;;;10.43;62.23;100995.47;5000459;28;20077;-74
2022/05/16 01:10:26;;;;;;;4.35;1.58;;;;;;;10.38;62.19;100991.06;5001401;28;20762;-75
2022/05/16 01:12:53;;;;;;;3.17;1.30;;;;;;;10.34;61.92;100992.81;4976991;28;20035;-74
2022/05/16 01:15:29;;;;;;;5.75;1.80;;;;;;;10.25;63.57;100990.13;5001647;28;20042;-74
2022/05/16 01:17:54;;;;;;;4.65;1.50;;;;;;;10.21;62.81;100986.59;4998027;28;20042;-74
2022/05/16 01:20:20;;;;;;;3.75;1.60;;;;;;;10.16;62.90;100988.31;5002206;28;20113;-74
2022/05/16 01:22:49;;;;;;;5.15;1.35;;;;;;;10.12;63.38;100983.06;4998148;28;20038;-74
2022/05/16 01:25:28;;;;;;;3.40;1.70;;;;;;;10.06;63.81;100984.81;5003223;28;20095;-74
2022/05/16 01:27:59;;;;;;;8.43;2.20;;;;;;;10.00;63.45;100979.50;4998608;28;20477;-75
2022/05/16 01:30:46;;;;;;;3.72;1.38;;;;;;;9.96;64.23;100975.09;5000108;28;20511;-75
2022/05/16 01:33:12;;;;;;;5.15;1.52;;;;;;;9.93;64.50;100982.09;5001401;28;20083;-75
2022/05/16 01:35:37;;;;;;;6.18;1.90;;;;;;;9.94;63.81;100979.47;5000309;28;20129;-75
2022/05/16 01:40:52;;;;;;;4.82;1.70;;;;;;;10.03;63.95;100966.34;5000316;28;20493;-75
2022/05/16 01:43:20;;;;;;;6.95;2.03;;;;;;;10.07;63.85;100961.94;4995819;28;20041;-74
2022/05/16 01:45:45;;;;;;;2.97;1.60;;;;;;;10.08;64.22;100959.28;5001410;28;20489;-75
2022/05/16 01:48:12;;;;;;;5.80;1.85;;;;;;;10.09;64.31;100961.06;5001214;28;20112;-75
2022/05/16 01:50:38;;;;;;;4.57;1.88;;;;;;;10.09;64.10;100966.34;4974361;28;20030;-75
2022/05/16 01:53:04;;;;;;;6.55;2.00;;;;;;;10.08;64.25;100955.78;4999338;28;20030;-75
2022/05/16 01:55:29;;;;;;;5.28;1.85;;;;;;;10.03;64.24;100954.88;5002846;28;20034;-75
2022/05/16 01:57:55;;;;;;;4.32;1.85;;;;;;;9.96;64.64;100954.00;5000809;28;20030;-74
2022/05/16 02:00:21;;;;;;;5.78;1.65;;;;;;;9.94;64.75;100955.75;5001702;28;20508;-75
2022/05/16 02:02:46;;;;;;;3.97;1.88;;;;;;;9.96;64.48;100956.66;4976375;28;20456;-75
2022/05/16 02:05:18;;;;;;;4.57;1.88;;;;;;;9.97;64.66;100952.25;5000348;28;20041;-74
2022/05/16 02:07:43;;;;;;;4.47;1.97;;;;;;;9.91;65.21;100950.47;4996728;28;20136;-74
2022/05/16 02:10:10;;;;;;;5.00;1.88;;;;;;;9.91;65.15;100946.97;5002223;28;20065;-75
2022/05/16 02:12:36;;;;;;;4.18;2.20;;;;;;;9.87;65.59;100946.06;4975851;28;20045;-75
2022/05/16 02:15:04;;;;;;;4.68;2.17;;;;;;;9.85;65.27;100940.78;5000622;28;20030;-75
2022/05/16 02:17:30;;;;;;;5.18;2.05;;;;;;;9.85;65.70;100940.78;4985422;28;20053;-75
2022/05/16 02:19:55;;;;;;;4.38;1.88;;;;;;;9.85;66.12;100937.25;4999858;28;20035;-74
2022/05/16 02:25:05;;;;;;;3.55;1.98;;;;;;;9.82;65.56;100934.59;5003324;28;20081;-75
2022/05/16 02:27:31;;;;;;;4.53;1.90;;;;;;;9.77;65.93;100928.44;5006198;28;20120;-75
2022/05/16 02:29:57;;;;;;;5.55;2.15;;;;;;;9.74;66.55;100926.66;5004706;28;20038;-74
2022/05/16 02:32:22;;;;;;;3.70;2.00;;;;;;;9.71;66.14;100920.53;4971006;28;20026;-75
2022/05/16 02:34:48;;;;;;;4.25;1.85;;;;;;;9.71;66.35;100915.25;5005956;28;20072;-74
2022/05/16 02:37:13;;;;;;;7.55;2.15;;;;;;;9.69;66.64;100917.88;5003538;28;20057;-74
2022/05/16 02:39:41;;;;;;;5.53;2.33;;;;;;;9.66;67.16;100921.38;5006515;28;20108;-74
2022/05/16 02:42:06;;;;;;;7.72;2.45;;;;;;;9.59;67.86;100931.91;5003813;28;20117;-75
2022/05/16 02:44:32;;;;;;;4.50;1.73;;;;;;;9.50;68.13;100919.56;5005101;28;20108;-74
2022/05/16 02:46:57;;;;;;;6.28;2.38;;;;;;;9.52;68.32;100919.56;5005169;28;20521;-74
2022/05/16 02:49:22;;;;;;;4.63;1.80;;;;;;;9.54;68.45;100925.75;5004075;28;20477;-75
2022/05/16 02:51:48;;;;;;;9.40;2.40;;;;;;;9.56;68.46;100929.22;5005752;28;20042;-74
2022/05/16 02:54:14;;;;;;;4.07;1.80;;;;;;;9.60;67.86;100929.25;4985338;28;20201;-75
2022/05/16 02:56:39;;;;;;;5.72;2.05;;;;;;;9.62;68.41;100932.78;5005916;28;20165;-75
2022/05/16 02:59:04;;;;;;;4.70;2.10;;;;;;;9.65;67.87;100934.56;5003932;28;20034;-74
2022/05/16 03:01:34;;;;;;;5.93;2.20;;;;;;;9.63;67.72;100934.53;5004447;28;20034;-75
2022/05/16 03:03:59;;;;;;;4.47;1.88;;;;;;;9.62;67.71;100922.25;4980465;28;20515;-75
2022/05/16 03:06:24;;;;;;;3.15;1.70;;;;;;;9.62;67.50;100926.66;5001486;28;20113;-75
2022/05/16 03:08:50;;;;;;;4.90;2.55;;;;;;;9.60;67.31;100921.34;4999057;28;20604;-75
2022/05/16 03:11:15;;;;;;;5.03;1.92;;;;;;;9.56;67.68;100924.88;5005271;28;20401;-75
2022/05/16 03:13:40;;;;;;;4.85;1.80;;;;;;;9.53;68.12;100921.31;4978779;28;20042;-75
2022/05/16 03:16:06;;;;;;;4.75;2.28;;;;;;;9.52;68.73;100925.72;5003976;28;20042;-75
2022/05/16 03:18:32;;;;;;;8.07;3.25;;;;;;;9.54;68.31;100926.63;5003035;28;20057;-74
2022/05/16 03:20:57;;;;;;;6.45;3.95;;;;;;;9.57;68.64;100923.09;5002699;28;20031;-75
2022/05/16 03:23:24;;;;;;;8.63;3.78;;;;;;;9.63;68.81;100917.84;5001640;28;20504;-74
2022/05/16 03:25:50;;;;;;;12.48;4.82;;;;;;;9.69;68.84;100914.34;5003593;28;20034;-75
2022/05/16 03:28:15;;;;;;;10.38;5.07;;;;;;;9.74;68.51;100910.84;5004549;28;20519;-75
2022/05/16 03:30:42;;;;;;;9.18;4.63;;;;;;;9.79;67.87;100913.50;5004021;28;20039;-75
2022/05/16 03:33:09;;;;;;;9.82;4.65;;;;;;;9.83;68.02;100908.25;5002192;28;20119;-75
2022/05/16 03:35:35;;;;;;;8.38;3.97;;;;;;;9.85;67.78;100905.63;4995994;28;20124;-75
2022/05/16 03:38:00;;;;;;;8.20;4.60;;;;;;;9.89;67.63;100904.75;4992177;28;20046;-75
2022/05/16 03:40:45;;;;;;;8.63;4.10;;;;;;;9.90;67.98;100901.22;5004488;28;20033;-75
2022/05/16 03:43:14;;;;;;;9.18;4.95;;;;;;;9.95;67.64;100902.13;4997226;28;20374;-75
2022/05/16 03:45:40;;;;;;;6.88;3.60;;;;;;;9.98;67.54;100898.63;4994979;28;20030;-75
2022/05/16 03:48:06;;;;;;;10.70;4.57;;;;;;;9.98;67.66;100899.53;5002719;28;20038;-75
2022/05/16 03:50:32;;;;;;;5.35;3.47;;;;;;;10.00;67.68;100899.50;5000874;28;20405;-74
2022/05/16 03:52:59;;;;;;;7.22;3.53;;;;;;;10.04;67.43;100898.66;4984814;28;20620;-75
2022/05/16 03:55:27;;;;;;;7.38;4.03;;;;;;;10.09;67.03;100896.91;4998193;28;20139;-75
2022/05/16 03:57:52;;;;;;;6.85;3.78;;;;;;;10.14;66.88;100894.25;5002547;28;20514;-74
2022/05/16 04:00:18;;;;;;;6.53;3.40;;;;;;;10.18;67.00;100899.53;5003687;28;20061;-75
2022/05/16 04:02:45;;;;;;;8.20;3.90;;;;;;;10.26;66.24;100895.16;4986492;28;20148;-75
2022/05/16 04:05:15;;;;;;;6.03;3.42;;;;;;;10.33;66.04;100895.22;4995265;28;20034;-75
2022/05/16 04:07:41;;;;;;;10.43;5.78;;;;;;;10.38;65.99;100891.69;4973846;28;20459;-74
2022/05/16 04:10:07;;;;;;;8.80;5.70;;;;;;;10.48;65.88;100882.91;5001620;28;20489;-74
2022/05/16 04:12:33;;;;;;;7.78;4.90;;;;;;;10.55;65.80;100878.47;4985422;28;20125;-74
2022/05/16 04:14:59;;;;;;;5.80;3.35;;;;;;;10.63;65.79;100881.13;5003932;28;20406;-75
2022/05/16 04:17:24;;;;;;;6.70;3.40;;;;;;;10.69;65.61;100884.66;4984415;28;20038;-74
2022/05/16 04:19:49;;;;;;;7.47;3.85;;;;;;;10.78;65.19;100883.75;4993266;28;20034;-74
2022/05/16 04:22:15;;;;;;;9.13;4.15;;;;;;;10.89;64.78;100887.25;4992791;28;20053;-75
2022/05/16 04:24:40;;;;;;;6.18;3.70;;;;;;;11.00;64.53;100884.56;4994432;28;20694;-74
2022/05/16 04:27:05;;;;;;;6.78;3.53;;;;;;;11.10;64.38;100885.44;5001084;28;20405;-74
2022/05/16 04:29:31;;;;;;;8.50;4.15;;;;;;;11.21;63.96;100893.31;4995133;28;20421;-74
2022/05/16 04:31:57;;;;;;;9.77;5.45;;;;;;;11.31;64.30;100897.69;4992517;28;20417;-74
2022/05/16 04:34:22;;;;;;;9.45;5.13;;;;;;;11.42;63.87;100893.25;4992331;28;20049;-74
2022/05/16 04:36:47;;;;;;;7.68;4.65;;;;;;;11.49;63.88;100895.00;4990533;28;20080;-74
2022/05/16 04:39:13;;;;;;;8.20;4.30;;;;;;;11.59;63.58;100887.91;4996635;28;20042;-74
2022/05/16 04:44:22;;;;;;;6.75;3.78;;;;;;;11.79;63.15;100886.06;4997676;28;20068;-75
2022/05/16 04:46:48;;;;;;;5.43;3.65;;;;;;;11.88;63.51;100877.22;5002743;28;20066;-74
2022/05/16 04:49:13;;;;;;;7.80;3.22;;;;;;;11.97;63.34;100876.25;5000424;28;20034;-75
2022/05/16 04:51:39;;;;;;;5.82;3.75;;;;;;;12.07;63.10;100880.59;4974253;28;20128;-74
2022/05/16 04:54:04;;;;;;;9.52;4.60;;;;;;;12.16;63.71;100887.63;4999628;28;20038;-74
2022/05/16 04:56:30;;;;;;;7.60;4.15;;;;;;;12.24;63.29;100889.31;5001988;28;20044;-75
2022/05/16 04:58:55;;;;;;;7.25;3.63;;;;;;;12.35;63.47;100894.53;4993891;28;20069;-75
2022/05/16 05:01:20;;;;;;;12.55;7.07;;;;;;;12.44;62.87;100893.56;4996821;28;20049;-75
2022/05/16 05:03:46;;;;;;;6.38;3.90;;;;;;;12.49;63.27;100892.63;5003105;28;20038;-75
2022/05/16 05:06:11;;;;;;;6.78;4.03;;;;;;;12.60;63.61;100899.59;5001752;28;20088;-74
2022/05/16 05:08:37;;;;;;;6.72;3.08;;;;;;;12.69;62.56;100900.41;4999935;28;20034;-74
2022/05/16 05:16:30;;;;;;;7.95;4.18;;;;;;;12.99;62.19;100903.66;4996067;28;20034;-75
2022/05/16 05:18:56;;;;;;;7.32;3.63;;;;;;;13.10;61.90;100895.63;5001386;28;20401;-74
2022/05/16 05:21:21;;;;;;;9.32;3.70;;;;;;;13.22;61.69;100902.53;5012473;22;20051;-75
2022/05/16 05:23:47;;;;;;;6.93;3.00;;;;;;;13.29;61.54;100901.63;4988147;28;20042;-75
2022/05/16 05:26:13;;;;;;;10.63;3.33;;;;;;;13.38;61.13;100902.38;4988288;28;20042;-75
2022/05/16 05:28:39;;;;;;;5.68;3.10;;;;;;;13.50;60.85;100893.41;4986639;28;20065;-75
2022/05/16 05:31:11;;;;;;;10.45;3.90;;;;;;;13.61;60.90;100898.56;4986889;28;20039;-74
2022/05/16 05:33:36;;;;;;;6.47;3.70;;;;;;;13.71;60.58;100899.34;4990602;28;20044;-74
2022/05/16 05:36:02;;;;;;;7.22;3.38;;;;;;;13.81;60.50;100901.84;4987119;28;20117;-75
2022/05/16 05:38:27;;;;;;;7.20;3.65;;;;;;;13.88;60.08;100902.63;4981554;28;20112;-74
2022/05/16 05:40:52;;;;;;;13.07;5.80;;;;;;;14.00;60.28;100897.16;4984649;28;20038;-75
2022/05/16 05:43:18;;;;;;;7.13;4.15;;;;;;;14.13;59.75;100895.19;4982070;28;20095;-75
2022/05/16 05:45:44;;;;;;;9.90;4.15;;;;;;;14.23;59.39;100888.84;4982669;28;20045;-75
2022/05/16 05:48:09;;;;;;;7.40;3.40;;;;;;;14.30;59.00;100894.94;4980954;28;20409;-75
2022/05/16 05:50:35;;;;;;;6.53;4.13;;;;;;;14.42;58.72;100886.78;4967657;28;20033;-75
2022/05/16 05:53:00;;;;;;;8.38;4.07;;;;;;;14.56;58.43;100891.00;4990643;28;20566;-74
2022/05/16 05:55:25;;;;;;;11.60;4.43;;;;;;;14.65;58.29;100893.53;4988872;28;20493;-75
2022/05/16 05:57:52;;;;;;;8.23;3.97;;;;;;;14.77;58.22;100897.75;4984931;28;20492;-74
2022/05/16 06:00:19;;;;;;;6.50;3.40;;;;;;;14.86;57.90;100901.13;4984262;28;20045;-75
2022/05/16 06:02:45;;;;;;;7.35;4.00;;;;;;;14.99;57.61;100895.59;4980707;28;20073;-75
2022/05/16 06:05:13;;;;;;;11.25;4.40;;;;;;;15.08;57.42;100908.69;4983470;28;20515;-75
2022/05/16 06:07:39;;;;;;;8.38;3.85;;;;;;;15.17;57.27;100908.53;4981695;28;20045;-75
2022/05/16 06:10:05;;;;;;;5.88;3.17;;;;;;;15.29;57.07;100900.28;4982219;28;20038;-75
2022/05/16 06:12:31;;;;;;;7.38;3.95;;;;;;;15.40;56.68;100891.22;4982119;28;20097;-75
2022/05/16 06:14:57;;;;;;;8.98;3.90;;;;;;;15.55;56.84;100888.25;4981390;28;20039;-74
2022/05/16 06:17:23;;;;;;;8.55;4.07;;;;;;;15.67;56.57;100898.66;4983156;28;20043;-75
2022/05/16 06:19:48;;;;;;;7.03;4.32;;;;;;;15.84;56.15;100898.31;4986395;28;20043;-75
2022/05/16 06:22:14;;;;;;;7.35;4.82;;;;;;;15.95;55.97;100893.59;4983172;28;20038;-75
2022/05/16 06:27:23;;;;;;;7.05;3.72;;;;;;;16.10;55.20;100884.41;4980669;28;20491;-75
2022/05/16 06:29:48;;;;;;;6.95;4.15;;;;;;;16.29;54.88;100879.50;4982326;28;20102;-75
2022/05/16 06:32:14;;;;;;;9.38;4.75;;;;;;;16.43;54.71;100873.88;4981507;28;20489;-75
2022/05/16 06:34:39;;;;;;;9.10;4.05;;;;;;;16.55;54.54;100870.88;4981100;28;20552;-75
2022/05/16 06:37:04;;;;;;;6.60;3.67;;;;;;;16.70;54.13;100879.41;4985877;28;20440;-75
2022/05/16 06:39:30;;;;;;;10.32;5.10;;;;;;;16.84;53.67;100879.94;4980662;28;20473;-75
2022/05/16 06:41:55;;;;;;;8.65;4.88;;;;;;;16.95;53.28;100883.22;4982942;28;20061;-75
2022/05/16 06:44:21;;;;;;;9.73;5.00;;;;;;;17.06;53.18;100881.13;4980705;28;20031;-75
2022/05/16 06:46:46;;;;;;;10.82;4.90;;;;;;;17.20;52.82;100879.88;4981987;28;20038;-75
2022/05/16 06:49:12;;;;;;;11.68;4.63;;;;;;;17.29;52.64;100879.59;4981808;28;20038;-75
2022/05/16 06:51:37;;;;;;;11.48;4.20;;;;;;;17.36;52.26;100874.97;4980536;28;20053;-75
2022/05/16 06:54:04;;;;;;;7.38;4.00;;;;;;;17.49;52.05;100874.56;4982627;28;20030;-75
2022/05/16 06:56:29;;;;;;;7.53;4.78;;;;;;;17.65;51.98;100874.09;4989448;28;20035;-75
2022/05/16 06:58:55;;;;;;;9.90;5.38;;;;;;;17.80;51.83;100871.00;4986713;28;20057;-75
2022/05/16 07:01:21;;;;;;;9.75;5.05;;;;;;;17.95;51.40;100875.88;4983839;28;20034;-75
2022/05/16 07:03:46;;;;;;;9.27;4.28;;;;;;;18.07;51.03;100876.41;4987997;28;20097;-75
2022/05/16 07:06:14;;;;;;;8.45;4.63;;;;;;;18.21;51.05;100882.19;4990137;28;20045;-75
2022/05/16 07:08:40;;;;;;;8.23;3.75;;;;;;;18.30;50.12;100884.56;4984962;28;20421;-75
2022/05/16 07:11:05;;;;;;;6.82;4.05;;;;;;;18.43;49.67;100871.69;4986051;28;20038;-75
2022/05/16 07:13:31;;;;;;;8.40;4.72;;;;;;;18.59;49.82;100880.91;4984021;28;20058;-75
2022/05/16 07:15:56;;;;;;;7.53;3.05;;;;;;;18.74;49.21;100876.00;4985092;28;20023;-75
2022/05/16 07:18:23;;;;;;;6.68;2.70;;;;;;;18.80;49.20;100881.16;4986617;28;20060;-75
2022/05/16 07:20:48;;;;;;;5.35;3.95;;;;;;;18.95;49.15;100877.94;4986311;28;20057;-75
2022/05/16 07:23:14;;;;;;;7.45;4.38;;;;;;;19.09;48.69;100874.78;4990310;28;20038;-75
2022/05/16 07:28:37;;;;;;;11.40;5.53;;;;;;;19.36;48.20;100870.22;4958457;28;20061;-75
2022/05/16 07:31:03;;;;;;;9.85;4.78;;;;;;;19.55;47.84;100869.53;4989895;28;20026;-75
2022/05/16 07:33:28;;;;;;;5.85;3.28;;;;;;;19.73;47.19;100873.31;4990978;28;20034;-75
2022/05/16 07:35:55;;;;;;;6.78;2.97;;;;;;;19.82;46.64;100864.94;4989409;28;20489;-75
2022/05/16 07:38:22;;;;;;;5.38;3.20;;;;;;;20.00;45.99;100866.03;4989369;28;20038;-75
2022/05/16 07:40:48;;;;;;;4.47;2.70;;;;;;;20.17;45.95;100857.28;4986742;28;20092;-75
2022/05/16 07:43:13;;;;;;;11.30;5.07;;;;;;;20.35;45.62;100860.09;4984159;28;20170;-75
2022/05/16 07:45:39;;;;;;;10.52;5.45;;;;;;;20.54;45.82;100857.56;4989299;28;20124;-75
2022/05/16 07:48:05;;;;;;;7.38;3.05;;;;;;;20.71;44.68;100846.09;4983338;28;20051;-76
2022/05/16 07:50:33;;;;;;;7.57;4.13;;;;;;;20.90;44.78;100842.63;4985623;28;20037;-75
2022/05/16 07:52:58;;;;;;;7.15;4.03;;;;;;;21.09;44.19;100839.97;4982567;28;20490;-75
2022/05/16 07:55:25;;;;;;;8.10;2.80;;;;;;;21.24;43.50;100841.97;4984796;28;20040;-75
2022/05/16 07:57:51;;;;;;;10.13;3.47;;;;;;;21.43;43.25;100834.88;4984101;28;20078;-75
2022/05/16 08:00:18;;;;;;;9.70;4.78;;;;;;;21.58;43.39;100833.25;4983116;28;20062;-75
2022/05/16 08:02:43;;;;;;;8.65;4.40;;;;;;;21.68;43.71;100836.38;4985111;28;20066;-75
2022/05/16 08:05:14;;;;;;;7.00;4.45;;;;;;;21.83;42.51;100838.34;4987722;28;20073;-75
2022/05/16 08:10:31;;;;;;;7.53;3.58;;;;;;;21.96;43.33;100835.06;4985360;28;20045;-75
2022/05/16 08:13:02;;;;;;;8.98;4.90;;;;;;;22.00;43.29;100842.03;4982978;28;20041;-75
2022/05/16 08:15:29;;;;;;;7.43;4.40;;;;;;;22.17;42.52;100844.75;4988946;28;20038;-75
2022/05/16 08:17:55;;;;;;;9.30;4.72;;;;;;;22.39;42.07;100832.97;4990049;28;20377;-75
2022/05/16 08:20:20;;;;;;;10.40;4.75;;;;;;;22.56;41.75;100835.66;4988113;28;20054;-75
2022/05/16 08:22:46;;;;;;;6.47;3.00;;;;;;;22.67;41.06;100827.03;4987595;28;20552;-75
2022/05/16 08:25:11;;;;;;;7.13;3.13;;;;;;;22.66;41.07;100822.59;4992410;28;20061;-75
2022/05/16 08:27:37;;;;;;;7.03;3.78;;;;;;;22.65;40.78;100821.72;4985782;28;20046;-75
2022/05/16 08:30:03;;;;;;;8.95;4.30;;;;;;;22.62;40.48;100824.59;4984580;28;20081;-75
2022/05/16 08:32:29;;;;;;;11.18;4.28;;;;;;;22.62;40.99;100824.59;4982666;28;20516;-76
2022/05/16 08:35:00;;;;;;;6.82;2.92;;;;;;;22.68;40.19;100823.41;4990748;28;20030;-75
2022/05/16 08:40:11;;;;;;;7.25;3.28;;;;;;;22.83;39.84;100817.22;4984411;28;20038;-75
2022/05/16 08:42:50;;;;;;;9.95;4.95;;;;;;;22.95;39.98;100826.44;4983730;28;20042;-75
2022/05/16 08:45:19;;;;;;;11.75;4.90;;;;;;;23.12;39.68;100814.81;4984856;28;20121;-75
2022/05/16 08:47:55;;;;;;;7.85;3.17;;;;;;;23.31;39.02;100820.94;4985858;28;20121;-75
2022/05/16 08:50:40;;;;;;;8.20;4.70;;;;;;;23.46;37.95;100819.25;4986938;28;20038;-76
2022/05/16 08:53:11;;;;;;;7.25;3.58;;;;;;;23.53;38.01;100817.94;4984433;28;20030;-75
2022/05/16 08:55:38;;;;;;;10.52;3.80;;;;;;;23.53;37.51;100820.66;4982488;28;20037;-76
2022/05/16 08:58:13;;;;;;;6.07;3.15;;;;;;;23.57;36.94;100827.59;4988243;28;20161;-75
2022/05/16 09:00:48;;;;;;;10.10;4.20;;;;;;;23.62;37.71;100817.41;4989831;28;20045;-76
2022/05/16 09:03:26;;;;;;;8.15;4.63;;;;;;;23.82;37.44;100819.03;4987503;28;20553;-76
2022/05/16 09:06:03;;;;;;;8.70;4.07;;;;;;;23.97;36.84;100821.78;4986619;28;20038;-76
2022/05/16 09:08:46;;;;;;;9.10;4.40;;;;;;;24.04;36.18;100809.72;4983327;28;20501;-76
2022/05/16 09:11:21;;;;;;;6.43;2.17;;;;;;;24.02;35.39;100809.78;4982177;28;20576;-76
2022/05/16 09:13:54;;;;;;;8.65;4.15;;;;;;;24.15;36.34;100809.94;4981143;28;20040;-76
2022/05/16 09:16:33;;;;;;;8.07;4.15;;;;;;;24.25;35.32;100805.75;4983135;28;20031;-76
2022/05/16 09:19:19;;;;;;;16.63;4.10;;;;;;;24.24;35.10;100804.03;4974550;28;20045;-76
2022/05/16 09:22:03;;;;;;;10.10;3.63;;;;;;;24.34;35.12;100798.97;4983913;28;20037;-76
2022/05/16 09:24:37;;;;;;;9.77;3.78;;;;;;;24.54;34.93;100795.09;4984121;28;20174;-76
2022/05/16 09:27:11;;;;;;;6.95;3.55;;;;;;;24.77;34.63;100796.41;4985595;28;20105;-76
2022/05/16 09:29:45;;;;;;;9.30;3.67;;;;;;;24.89;34.20;100794.78;4988607;28;20069;-76
2022/05/16 09:32:28;;;;;;;5.78;2.35;;;;;;;24.95;33.53;100793.53;4983249;28;20062;-76
2022/05/16 09:34:54;;;;;;;8.65;4.30;;;;;;;25.05;33.89;100798.25;4981283;28;20039;-76
2022/05/16 09:37:20;;;;;;;6.22;2.42;;;;;;;25.13;33.54;100786.97;4983207;28;20046;-76
2022/05/16 09:39:47;;;;;;;5.95;2.45;;;;;;;25.10;33.45;100792.59;4972202;28;20501;-75
2022/05/16 09:42:19;;;;;;;9.88;2.30;;;;;;;25.04;33.02;100787.53;4982200;28;20030;-76
2022/05/16 09:44:59;;;;;;;8.15;3.58;;;;;;;25.04;32.58;100777.59;4983280;28;20065;-76
2022/05/16 09:47:32;;;;;;;5.63;2.50;;;;;;;25.09;33.20;100775.50;4971320;28;20046;-76
2022/05/16 09:50:14;;;;;;;4.97;1.92;;;;;;;25.14;32.66;100772.50;4988150;28;20473;-76
2022/05/16 09:52:46;;;;;;;8.02;3.33;;;;;;;25.28;32.91;100759.03;4983499;28;20030;-76
2022/05/16 09:55:35;;;;;;;10.43;4.32;;;;;;;25.43;32.94;100767.97;4979625;28;20046;-76
2022/05/16 09:58:12;;;;;;;7.95;3.97;;;;;;;25.70;32.55;100765.31;4985028;28;20485;-76
2022/05/16 10:00:59;;;;;;;9.27;3.53;;;;;;;25.82;31.59;100755.53;4990383;28;20042;-76
2022/05/16 10:03:33;;;;;;;6.88;3.78;;;;;;;25.87;31.83;100772.34;4984787;28;20038;-76
2022/05/16 10:06:02;;;;;;;8.50;4.30;;;;;;;25.95;31.68;100753.75;4983714;28;20544;-76
2022/05/16 10:08:30;;;;;;;4.97;2.42;;;;;;;26.09;31.42;100746.56;4982543;28;20525;-77
2022/05/16 10:10:57;;;;;;;6.60;3.60;;;;;;;26.11;31.66;100747.31;4983641;28;20045;-76
2022/05/16 10:13:24;;;;;;;7.40;3.47;;;;;;;26.22;31.12;100747.47;4981140;28;20486;-77
2022/05/16 10:15:54;;;;;;;9.13;3.53;;;;;;;26.26;31.46;100742.72;4983298;28;20125;-76
2022/05/16 10:18:22;;;;;;;7.68;2.75;;;;;;;26.32;31.35;100751.25;4985509;28;20035;-76
2022/05/16 10:20:55;;;;;;;7.43;3.05;;;;;;;26.54;31.23;100755.22;4984614;28;20047;-76
2022/05/16 10:23:29;;;;;;;8.48;4.03;;;;;;;26.75;30.84;100747.44;4980600;28;20031;-76
2022/05/16 10:25:59;;;;;;;6.07;3.08;;;;;;;26.87;30.24;100742.03;4987317;28;20113;-76
2022/05/16 10:28:30;;;;;;;9.25;4.18;;;;;;;26.99;30.12;100739.44;4983940;28;20444;-76
2022/05/16 10:33:43;;;;;;;9.77;4.10;;;;;;;27.16;30.23;100730.94;4988927;28;19921;-76
2022/05/16 10:36:18;;;;;;;7.03;3.50;;;;;;;27.25;30.21;100734.88;4987530;28;20448;-76
2022/05/16 10:39:17;;;;;;;9.80;3.47;;;;;;;27.24;29.74;100733.13;4983849;28;20050;-76
2022/05/16 10:41:53;;;;;;;9.25;4.10;;;;;;;27.37;30.17;100727.69;4987406;28;20053;-77
2022/05/16 10:44:38;;;;;;;10.10;4.05;;;;;;;27.44;29.79;100721.69;4987348;28;20034;-76
2022/05/16 10:47:13;;;;;;;9.32;3.28;;;;;;;27.52;28.86;100716.56;4978490;28;20397;-76
2022/05/16 10:49:45;;;;;;;7.07;2.03;;;;;;;27.50;28.15;100715.81;4994310;28;20037;-76
2022/05/16 10:52:24;;;;;;;6.00;1.88;;;;;;;27.35;28.71;100700.69;4993255;28;20042;-76
2022/05/16 10:54:49;;;;;;;5.78;2.22;;;;;;;27.28;28.92;100708.41;4992309;28;20038;-76
2022/05/16 10:57:42;;;;;;;9.02;4.30;;;;;;;27.44;28.58;100700.00;4988709;28;20053;-77
2022/05/16 11:00:18;;;;;;;7.50;3.00;;;;;;;27.64;28.67;100693.13;4987355;28;20097;-75
2022/05/16 11:03:04;;;;;;;5.28;2.33;;;;;;;27.84;28.68;100691.63;4993024;28;20031;-75
2022/05/16 11:05:57;;;;;;;7.90;3.65;;;;;;;28.12;28.44;100693.09;4987935;28;20070;-75
2022/05/16 11:08:36;;;;;;;9.00;2.88;;;;;;;28.35;27.39;100688.59;4973828;28;20096;-75
2022/05/16 11:11:03;;;;;;;9.45;2.50;;;;;;;28.27;28.02;100698.28;4988458;28;20039;-75
2022/05/16 11:13:40;;;;;;;6.55;3.90;;;;;;;28.45;27.27;100693.31;4988568;28;20038;-75
2022/05/16 11:16:13;;;;;;;7.72;3.63;;;;;;;28.73;27.43;100690.16;4986297;28;20049;-75
2022/05/16 11:18:46;;;;;;;8.98;4.90;;;;;;;29.12;28.05;100681.66;4983131;28;20069;-75
2022/05/16 11:21:36;;;;;;;7.80;3.17;;;;;;;29.42;25.76;100680.97;4983060;28;20509;-75
2022/05/16 11:24:23;;;;;;;7.35;3.03;;;;;;;29.23;25.56;100684.34;4985976;28;20030;-75
2022/05/16 11:27:05;;;;;;;9.68;3.10;;;;;;;29.43;25.59;100683.56;4985770;28;20038;-75
2022/05/16 11:29:46;;;;;;;7.32;3.83;;;;;;;29.80;24.96;100674.22;4988029;28;20035;-75
2022/05/16 11:32:39;;;;;;;5.80;2.05;;;;;;;30.08;24.50;100670.00;4985811;28;20485;-75
2022/05/16 11:35:22;;;;;;;6.25;2.60;;;;;;;30.38;23.54;100665.63;4983818;28;20046;-75
2022/05/16 11:38:15;;;;;;;6.93;2.25;;;;;;;30.78;23.36;100663.84;4989048;28;20520;-75
2022/05/16 11:40:53;;;;;;;5.40;2.47;;;;;;;30.96;23.86;100658.63;4984428;28;20035;-75
2022/05/16 11:43:29;;;;;;;7.80;3.40;;;;;;;30.95;23.50;100653.31;4985878;28;20520;-76
2022/05/16 11:46:13;;;;;;;5.57;2.33;;;;;;;30.90;23.65;100656.47;4989014;28;20034;-74
2022/05/16 11:49:08;;;;;;;5.80;2.30;;;;;;;31.14;22.62;100658.81;4991243;28;20104;-75
2022/05/16 11:52:01;;;;;;;9.07;4.20;;;;;;;31.89;23.05;100648.31;4988016;28;20038;-76
2022/05/16 11:54:30;;;;;;;11.25;4.30;;;;;;;32.25;22.64;100644.00;4985445;28;20108;-76
2022/05/16 12:02:28;;;;;;;5.55;2.95;;;;;;;33.23;21.14;100639.03;4989456;28;20043;-76
2022/05/16 12:05:02;;;;;;;7.53;3.03;;;;;;;32.86;21.06;100637.19;4986165;28;20392;-76
2022/05/16 12:07:39;;;;;;;6.72;3.70;;;;;;;33.04;20.86;100644.59;4989096;28;20044;-75
2022/05/16 12:10:08;;;;;;;10.57;4.75;;;;;;;33.21;20.64;100632.84;4987278;28;20023;-76
2022/05/16 12:12:38;;;;;;;6.05;2.35;;;;;;;33.01;20.92;100633.94;4982833;28;20069;-76